Hauptseite
METAR-TAF:

METAR-TAF

Flughäfen :

Flugplatz Laupheim

Laupheim, Deutschland

Breite: 48-13N, Länge: 009-55E, Höhe: 538 m

Beobachtung

Neuester Wetterbericht von vor 17 Minuten, um 15:20 UTC
Wind 6 kt aus Nordost
Temperatur 19°C
Luftfeuchtigkeit 49%
Luftdruck 1018 hPa
Sichtweite 10 km oder mehr
Leicht bewölkt in der Höhe von 5000 ft

METAR: ETHL 171520Z 04006KT 9999 FEW050 19/08 Q1018 BLU+BLU+

Zeit: 17:37 (15:37 UTC)

Prognose

Neuester Wetterbericht von vor 2 Stunden und 23 Minuten, um 13:14 UTC
Gültige Prognose vom 17 um 14 UTC bis 17 um 23 UTC
Wind 3 kt aus unterschiedlichen Richtungen
Sichtweite 10 km oder mehr
Leicht bewölkt in der Höhe von 24000 ft

TAF: ETHL 171314Z 1714/1723 VRB03KT 9999 NSW FEW240

Wetterbeobachtungen und Prognosen von mehr als 4000 Flughäfen (METAR und TAF Bericht).

Die verfügbaren Stationen werden durch gelbe und rote Markierungen auf der Karte dargestellt.

Führen Sie die Maus auf sie, um den Namen der Station zu sehen.

Darauf klicken, um die Beobachtung von Wetterbeobachtungen und Prognosen zu sehen.

Um die Karte zu ändern : klicken Sie auf den grünen Tasten mit einem schwarzen Kreuz Zum Vergrößern, auf den grünen Button mit einem Gedankenstrich zu verkleinern, oder auf die grünen Pfeile für benachbarte Karten.


METAR-TAF: